Time;durP1;ratioP1;P1;durP2;ratioP2;P2;SDS_P1;SDS_P2;PMS_P1;PMS_P2;Temp;Humidity;BMP_temperature;BMP_pressure;BME280_temperature;BME280_humidity;BME280_pressure;Samples;Min_cycle;Max_cycle;Signal;HPM_P1;HPM_P2
2022/06/14 00:03:28;;;;;;;7.10;2.10;;;;;;;9.92;91.52;96894.10;107788;1265;111334;-75
2022/06/14 00:06:20;;;;;;;4.30;2.30;;;;;;;9.94;91.44;96899.19;107793;1265;46881;-75
2022/06/14 00:09:09;;;;;;;5.70;2.50;;;;;;;9.96;91.09;96902.79;107774;1265;58329;-75
2022/06/14 00:11:42;;;;;;;3.30;2.20;;;;;;;9.91;90.88;96903.59;107818;1265;46942;-75
2022/06/14 00:14:13;;;;;;;3.70;2.10;;;;;;;9.88;90.83;96902.91;107838;1265;45658;-75
2022/06/14 00:16:44;;;;;;;5.10;2.50;;;;;;;9.90;90.56;96906.40;107812;1265;34666;-75
2022/06/14 00:19:16;;;;;;;3.60;1.70;;;;;;;9.94;90.46;96905.65;107743;1265;34561;-75
2022/06/14 00:21:47;;;;;;;4.20;2.00;;;;;;;10.16;90.31;96906.38;107820;1265;57462;-75
2022/06/14 00:24:18;;;;;;;3.50;2.20;;;;;;;10.22;89.85;96905.42;107704;1265;42001;-75
2022/06/14 00:26:50;;;;;;;3.40;2.20;;;;;;;10.23;89.60;96905.95;107759;1265;35422;-75
2022/06/14 00:29:21;;;;;;;4.30;2.40;;;;;;;10.25;89.37;96908.13;107770;1265;49524;-75
2022/06/14 00:31:52;;;;;;;3.40;1.80;;;;;;;10.24;89.17;96912.79;107859;1265;39095;-75
2022/06/14 00:34:23;;;;;;;3.30;1.80;;;;;;;10.28;89.10;96913.05;107754;1265;32287;-75
2022/06/14 00:36:57;;;;;;;4.00;2.30;;;;;;;10.35;89.07;96913.73;107745;1265;41711;-75
2022/06/14 00:39:30;;;;;;;5.00;2.50;;;;;;;10.43;88.79;96912.59;107887;1265;42472;-75
2022/06/14 00:42:01;;;;;;;3.50;2.30;;;;;;;10.47;88.57;96914.17;107955;1265;37212;-74
2022/06/14 00:44:32;;;;;;;4.90;2.10;;;;;;;10.39;88.58;96916.36;107817;1265;53156;-74
2022/06/14 00:47:06;;;;;;;5.00;2.70;;;;;;;10.26;88.60;96918.88;107727;1265;42826;-75
2022/06/14 00:49:45;;;;;;;5.50;2.60;;;;;;;10.22;88.81;96922.32;107760;1264;36873;-74
2022/06/14 00:52:24;;;;;;;4.80;2.70;;;;;;;10.18;88.94;96924.02;107813;1265;46850;-74
2022/06/14 00:54:59;;;;;;;4.80;2.70;;;;;;;10.15;89.15;96928.42;107742;1265;49828;-75
2022/06/14 01:00:31;;;;;;;5.90;2.30;;;;;;;10.18;89.41;96932.23;102178;1269;962237;-80
2022/06/14 01:03:10;;;;;;;4.10;2.90;;;;;;;10.20;89.39;96933.45;107186;1273;44447;-78
2022/06/14 01:06:06;;;;;;;5.40;3.10;;;;;;;10.36;89.96;96934.82;107256;1274;35721;-79
2022/06/14 01:08:42;;;;;;;5.40;2.60;;;;;;;10.39;89.34;96933.59;107285;1274;41784;-79
2022/06/14 01:11:32;;;;;;;6.50;2.70;;;;;;;10.28;89.13;96937.00;107230;1272;58531;-79
2022/06/14 01:14:06;;;;;;;10.00;3.40;;;;;;;10.21;89.21;96936.52;107233;1273;53787;-78
2022/06/14 01:16:38;;;;;;;3.60;2.40;;;;;;;10.15;89.51;96938.31;107292;1274;32409;-78
2022/06/14 01:19:19;;;;;;;6.60;2.90;;;;;;;10.03;89.45;96944.74;107359;1274;37169;-79
2022/06/14 01:22:24;;;;;;;4.20;2.50;;;;;;;9.90;89.68;96936.48;107350;1274;38932;-79
2022/06/14 01:24:56;;;;;;;5.30;3.10;;;;;;;9.74;89.88;96931.34;107356;1273;33670;-78
2022/06/14 01:27:28;;;;;;;4.30;2.30;;;;;;;9.64;90.46;96932.98;107352;1274;37359;-79
2022/06/14 01:30:05;;;;;;;4.70;3.10;;;;;;;9.63;90.94;96936.80;107437;1275;38658;-79
2022/06/14 01:32:41;;;;;;;4.70;3.40;;;;;;;9.65;91.12;96936.42;107399;1275;33868;-79
2022/06/14 01:35:17;;;;;;;8.10;3.60;;;;;;;9.63;91.35;96936.05;107457;1274;33391;-79
2022/06/14 01:37:52;;;;;;;5.30;3.50;;;;;;;9.59;91.49;96937.42;107485;1275;32895;-79
2022/06/14 01:40:33;;;;;;;7.80;3.50;;;;;;;9.50;91.45;96937.63;105938;1272;1776785;-77
2022/06/14 01:43:21;;;;;;;6.00;3.60;;;;;;;9.44;92.05;96943.82;107469;1273;34848;-78
2022/06/14 01:46:01;;;;;;;5.20;3.60;;;;;;;9.40;92.20;96946.98;107356;1275;49756;-81
2022/06/14 01:48:40;;;;;;;6.00;3.90;;;;;;;9.38;92.97;96954.27;107423;1272;33927;-80
2022/06/14 01:54:19;;;;;;;7.70;4.20;;;;;;;9.62;93.23;96953.95;107240;1273;49511;-80
2022/06/14 01:56:59;;;;;;;6.10;3.70;;;;;;;9.66;93.21;96954.48;107375;1274;36742;-81
2022/06/14 01:59:38;;;;;;;8.50;4.30;;;;;;;9.74;93.51;96954.16;107431;1272;38863;-81
2022/06/14 02:02:14;;;;;;;7.10;4.00;;;;;;;9.95;93.86;96957.56;107320;1272;40258;-80
2022/06/14 02:04:54;;;;;;;6.60;3.70;;;;;;;10.11;93.77;96961.70;107367;1272;34888;-80
2022/06/14 02:07:38;;;;;;;8.80;4.20;;;;;;;10.22;93.45;96962.91;107308;1272;50536;-81
2022/06/14 02:10:15;;;;;;;5.80;3.10;;;;;;;10.31;92.97;96959.90;107351;1273;33058;-81
2022/06/14 02:12:51;;;;;;;8.50;3.70;;;;;;;10.43;92.92;96965.61;107233;1274;49568;-81
2022/06/14 02:15:32;;;;;;;4.30;3.20;;;;;;;10.51;92.52;96960.86;107266;1272;62919;-81
2022/06/14 02:18:12;;;;;;;5.80;2.90;;;;;;;10.57;92.09;96957.79;107450;1272;59782;-82
2022/06/14 02:20:51;;;;;;;8.70;3.80;;;;;;;10.61;91.78;96963.13;107344;1272;61902;-81
2022/06/14 02:23:25;;;;;;;5.80;3.80;;;;;;;10.62;91.55;96966.09;107360;1274;51963;-80
2022/06/14 02:26:00;;;;;;;5.50;3.70;;;;;;;10.64;91.88;96968.15;107389;1273;69643;-81
2022/06/14 02:28:35;;;;;;;7.80;4.70;;;;;;;10.75;92.33;96969.04;107473;1272;62735;-81
2022/06/14 02:31:11;;;;;;;6.50;4.30;;;;;;;10.87;92.21;96966.39;107402;1272;36293;-80
2022/06/14 02:33:48;;;;;;;9.60;4.50;;;;;;;10.96;91.82;96972.98;107323;1272;32456;-81
2022/06/14 02:36:27;;;;;;;8.00;4.30;;;;;;;10.98;91.53;96971.92;107225;1275;32822;-81
2022/06/14 02:39:03;;;;;;;8.80;4.40;;;;;;;10.98;91.43;96973.09;107417;1272;36181;-80
2022/06/14 02:41:42;;;;;;;6.80;4.10;;;;;;;10.97;91.40;96974.15;107308;1272;76536;-79
2022/06/14 02:44:20;;;;;;;6.70;3.90;;;;;;;10.95;91.32;96974.89;107351;1273;42270;-78
2022/06/14 02:46:58;;;;;;;7.30;4.40;;;;;;;10.96;91.72;96979.98;107159;1272;108286;-78
2022/06/14 02:49:38;;;;;;;7.00;4.90;;;;;;;11.05;92.10;96982.45;107341;1272;99017;-79
2022/06/14 02:52:31;;;;;;;6.70;4.40;;;;;;;11.14;92.15;96985.71;107258;1272;112928;-79
2022/06/14 02:55:08;;;;;;;8.50;4.70;;;;;;;11.09;91.82;96987.20;107351;1272;82176;-79
2022/06/14 02:58:02;;;;;;;5.70;3.90;;;;;;;11.02;91.79;96989.10;107238;1272;102419;-79
2022/06/14 03:00:58;;;;;;;6.40;4.30;;;;;;;10.95;91.99;96988.59;107082;1272;127601;-79
2022/06/14 03:03:53;;;;;;;8.10;4.70;;;;;;;10.89;92.26;96987.60;107279;1272;81008;-79
2022/06/14 03:06:58;;;;;;;6.30;4.90;;;;;;;10.87;92.56;96989.41;107432;1272;56508;-79
2022/06/14 03:09:49;;;;;;;7.60;5.20;;;;;;;10.90;92.92;96988.44;107181;1272;128276;-79
2022/06/14 03:12:47;;;;;;;8.90;5.40;;;;;;;10.95;93.29;96991.81;107315;1272;63450;-79
2022/06/14 03:15:42;;;;;;;7.20;5.70;;;;;;;10.97;93.61;96995.68;107377;1272;44781;-79
2022/06/14 03:18:36;;;;;;;7.40;5.30;;;;;;;11.02;93.93;96996.80;107370;1272;55643;-79
2022/06/14 03:21:34;;;;;;;8.10;5.00;;;;;;;11.01;94.00;97000.20;107334;1272;47272;-79
2022/06/14 03:24:10;;;;;;;6.60;5.60;;;;;;;11.00;94.16;97001.63;107192;1272;86069;-79
2022/06/14 03:26:52;;;;;;;8.10;6.00;;;;;;;11.01;94.45;97006.02;107260;1275;44322;-79
2022/06/14 03:29:31;;;;;;;9.90;6.00;;;;;;;11.07;94.57;97008.92;107424;1272;37706;-80
2022/06/14 03:32:09;;;;;;;8.00;6.30;;;;;;;11.09;94.52;97013.67;107345;1269;76882;-79
2022/06/14 03:34:45;;;;;;;9.30;6.00;;;;;;;11.10;94.50;97019.09;107346;1272;44558;-79
2022/06/14 03:37:16;;;;;;;9.50;6.30;;;;;;;11.12;94.54;97017.88;107354;1272;60721;-79
2022/06/14 03:39:53;;;;;;;8.50;6.30;;;;;;;11.14;94.68;97018.23;107173;1272;80687;-79
2022/06/14 03:42:24;;;;;;;7.70;6.10;;;;;;;11.19;94.78;97024.48;107298;1272;41984;-80
2022/06/14 03:44:58;;;;;;;8.80;6.10;;;;;;;11.23;94.94;97023.23;107275;1272;43051;-79
2022/06/14 03:47:30;;;;;;;8.60;5.60;;;;;;;11.28;95.03;97020.41;107002;1272;149656;-79
2022/06/14 03:50:07;;;;;;;10.90;6.70;;;;;;;11.36;94.97;97024.98;107327;1272;44389;-79
2022/06/14 03:52:56;;;;;;;11.50;6.10;;;;;;;11.44;95.01;97028.84;107074;1277;63480;-79
2022/06/14 03:55:47;;;;;;;9.10;6.40;;;;;;;11.50;94.80;97029.59;107282;1272;125494;-79
2022/06/14 03:58:43;;;;;;;8.70;6.00;;;;;;;11.55;94.73;97034.58;107280;1272;46939;-79
2022/06/14 04:01:18;;;;;;;9.00;5.40;;;;;;;11.62;94.56;97033.41;107032;1272;104025;-79
2022/06/14 04:04:17;;;;;;;9.10;5.90;;;;;;;11.67;94.36;97028.70;107289;1272;43879;-79
2022/06/14 04:06:58;;;;;;;8.50;5.30;;;;;;;11.75;94.28;97029.30;107249;1272;69994;-79
2022/06/14 04:09:41;;;;;;;9.40;5.90;;;;;;;11.82;94.22;97028.23;105324;1272;2555021;-80
2022/06/14 04:12:21;;;;;;;10.60;5.60;;;;;;;11.91;94.06;97033.59;107218;1272;50403;-79
2022/06/14 04:15:12;;;;;;;7.50;5.40;;;;;;;11.98;93.55;97032.17;106021;1274;1547509;-79
2022/06/14 04:17:51;;;;;;;10.20;5.50;;;;;;;12.05;93.16;97034.60;107084;1274;89776;-79
2022/06/14 04:20:31;;;;;;;8.00;5.50;;;;;;;12.10;92.73;97033.45;107289;1273;48687;-79
2022/06/14 04:23:10;;;;;;;9.10;5.30;;;;;;;12.10;92.33;97029.46;107390;1273;43475;-79
2022/06/14 04:25:45;;;;;;;12.70;5.60;;;;;;;12.08;92.08;97039.67;107136;1274;77005;-79
2022/06/14 04:28:29;;;;;;;8.80;5.30;;;;;;;12.04;92.04;97037.90;107126;1274;130932;-79
2022/06/14 04:31:06;;;;;;;8.10;5.20;;;;;;;12.00;91.79;97041.29;107467;1273;33712;-80
2022/06/14 04:33:42;;;;;;;9.60;5.00;;;;;;;11.97;91.64;97043.06;107020;1274;135798;-79
2022/06/14 04:36:22;;;;;;;8.80;5.90;;;;;;;11.95;91.52;97043.76;106959;1274;126044;-79
2022/06/14 04:38:57;;;;;;;7.80;5.10;;;;;;;12.00;91.78;97044.05;107362;1274;88804;-79
2022/06/14 04:41:34;;;;;;;9.80;4.90;;;;;;;12.10;91.74;97051.09;107321;1274;40671;-79
2022/06/14 04:44:12;;;;;;;7.30;5.00;;;;;;;12.20;91.49;97050.77;107201;1274;85065;-79
2022/06/14 04:46:49;;;;;;;9.80;4.90;;;;;;;12.30;91.11;97047.02;107254;1274;65653;-79
2022/06/14 04:49:26;;;;;;;10.90;5.40;;;;;;;12.45;90.69;97046.56;107167;1274;47253;-79
2022/06/14 04:52:04;;;;;;;5.30;4.10;;;;;;;12.58;89.07;97046.52;106925;1274;127550;-80
2022/06/14 04:54:42;;;;;;;9.90;4.60;;;;;;;12.68;87.75;97053.04;107034;1274;80064;-78
2022/06/14 04:57:20;;;;;;;8.50;4.50;;;;;;;12.78;87.43;97055.69;107015;1274;115809;-79
2022/06/14 04:59:57;;;;;;;8.70;5.00;;;;;;;12.95;86.69;97060.58;107230;1275;68037;-79
2022/06/14 05:02:33;;;;;;;10.20;5.00;;;;;;;13.11;85.95;97055.31;107294;1274;47697;-80
2022/06/14 05:05:12;;;;;;;9.20;5.00;;;;;;;13.10;84.24;97058.98;107251;1274;66522;-79
2022/06/14 05:07:48;;;;;;;9.70;5.80;;;;;;;13.04;84.13;97058.35;107260;1274;63947;-79
2022/06/14 05:10:25;;;;;;;6.00;3.80;;;;;;;13.00;83.67;97063.63;107191;1274;83216;-79
2022/06/14 05:13:10;;;;;;;12.20;5.70;;;;;;;12.93;83.31;97071.56;106834;1275;122652;-79
2022/06/14 05:15:48;;;;;;;9.70;5.20;;;;;;;12.87;83.21;97077.42;107288;1274;40911;-79
2022/06/14 05:18:25;;;;;;;10.40;5.30;;;;;;;12.97;83.36;97071.47;107242;1274;91603;-79
2022/06/14 05:21:00;;;;;;;11.10;5.50;;;;;;;13.16;82.93;97069.48;106863;1274;119150;-79
2022/06/14 05:23:36;;;;;;;7.00;4.70;;;;;;;13.26;82.23;97070.24;107492;1274;39746;-79
2022/06/14 05:26:19;;;;;;;9.50;4.80;;;;;;;13.21;81.07;97070.77;107258;1273;66410;-79
2022/06/14 05:29:05;;;;;;;7.90;5.10;;;;;;;13.51;81.46;97071.22;107149;1274;137797;-80
2022/06/14 05:31:44;;;;;;;9.50;4.50;;;;;;;14.23;80.93;97076.54;107389;1274;42030;-80
2022/06/14 05:34:21;;;;;;;8.30;4.50;;;;;;;15.78;78.95;97076.48;107300;1274;57047;-79
2022/06/14 05:36:59;;;;;;;6.70;4.20;;;;;;;18.04;75.13;97072.52;107055;1274;102503;-80
2022/06/14 05:39:35;;;;;;;8.00;4.20;;;;;;;19.56;68.76;97069.33;107358;1274;42640;-80
2022/06/14 05:42:12;;;;;;;6.90;3.90;;;;;;;20.53;64.67;97061.27;106973;1274;104717;-80
2022/06/14 05:44:48;;;;;;;7.10;3.90;;;;;;;21.51;61.96;97063.73;107187;1274;78361;-80
2022/06/14 05:47:28;;;;;;;7.20;3.20;;;;;;;22.59;58.00;97054.89;107218;1274;73133;-80
2022/06/14 05:50:04;;;;;;;9.00;3.60;;;;;;;22.56;54.32;97056.88;107230;1274;151605;-80
2022/06/14 05:52:39;;;;;;;6.30;3.50;;;;;;;23.11;53.36;97062.52;107077;1274;80251;-80
2022/06/14 05:55:17;;;;;;;5.70;3.20;;;;;;;23.71;53.00;97063.02;107181;1274;34548;-80
2022/06/14 05:57:52;;;;;;;6.70;3.40;;;;;;;25.07;51.62;97062.48;107173;1274;35648;-78
2022/06/14 06:00:28;;;;;;;5.80;3.00;;;;;;;26.63;52.30;97059.21;109049;1274;50697;-79
2022/06/14 06:03:06;;;;;;;4.60;2.90;;;;;;;27.59;46.93;97057.54;107298;1274;39695;-80
2022/06/14 06:05:41;;;;;;;4.30;2.60;;;;;;;26.88;43.33;97054.02;107226;1274;41151;-79
2022/06/14 06:08:19;;;;;;;6.80;2.80;;;;;;;26.43;44.73;97055.05;107283;1274;53654;-80
2022/06/14 06:10:57;;;;;;;5.00;2.60;;;;;;;28.44;46.82;97060.77;106914;1274;117622;-80
2022/06/14 06:13:34;;;;;;;5.90;2.40;;;;;;;30.60;45.45;97057.27;107247;1274;31709;-80
2022/06/14 06:16:10;;;;;;;5.40;2.10;;;;;;;31.42;40.29;97056.58;107206;1274;35042;-75
2022/06/14 06:18:47;;;;;;;4.70;2.30;;;;;;;30.87;38.64;97062.89;107102;1273;38645;-76
2022/06/14 06:21:26;;;;;;;6.80;2.40;;;;;;;31.47;39.73;97062.78;105321;1274;1504722;-82
2022/06/14 06:24:03;;;;;;;4.30;2.20;;;;;;;31.83;36.41;97063.05;106867;1274;100227;-76
2022/06/14 06:26:38;;;;;;;6.50;2.00;;;;;;;32.55;36.10;97067.58;107228;1274;33233;-76
2022/06/14 06:29:17;;;;;;;5.10;1.80;;;;;;;30.91;31.60;97068.02;106963;1274;178191;-76
2022/06/14 06:31:49;;;;;;;5.00;2.10;;;;;;;28.80;33.40;97072.89;107129;1274;52971;-76
2022/06/14 06:34:21;;;;;;;6.40;2.80;;;;;;;28.84;35.51;97072.61;107102;1274;53938;-75
2022/06/14 06:37:01;;;;;;;3.40;1.90;;;;;;;29.68;36.38;97076.83;107213;1274;44772;-75
2022/06/14 06:39:49;;;;;;;6.00;2.30;;;;;;;31.26;36.30;97072.54;107235;1274;32052;-75
2022/06/14 06:42:28;;;;;;;3.90;2.00;;;;;;;32.34;33.95;97070.59;107213;1274;43305;-75
2022/06/14 06:45:04;;;;;;;3.90;2.20;;;;;;;31.15;32.92;97069.27;107153;1274;68378;-76
2022/06/14 06:47:41;;;;;;;4.60;2.40;;;;;;;31.97;34.86;97073.02;107134;1274;56259;-75
2022/06/14 06:50:25;;;;;;;4.00;1.90;;;;;;;34.28;33.95;97074.59;107195;1274;63094;-76
2022/06/14 06:53:06;;;;;;;2.90;1.80;;;;;;;35.56;31.39;97074.68;107132;1274;46173;-75
2022/06/14 06:55:44;;;;;;;3.60;1.80;;;;;;;34.31;27.55;97077.21;107029;1275;47422;-76
2022/06/14 06:58:21;;;;;;;2.70;1.60;;;;;;;31.35;27.57;97079.58;107027;1274;48802;-76
2022/06/14 07:00:57;;;;;;;4.70;1.50;;;;;;;29.52;29.71;97078.23;108342;1274;39227;-76
2022/06/14 07:03:37;;;;;;;2.50;1.30;;;;;;;28.10;29.80;97087.85;107232;1274;34680;-77
2022/06/14 07:06:19;;;;;;;3.70;1.90;;;;;;;27.18;30.34;97076.52;107229;1274;39754;-77
2022/06/14 07:08:59;;;;;;;1.90;1.20;;;;;;;24.83;32.61;97085.98;103532;1274;3565240;-75
2022/06/14 07:11:38;;;;;;;3.70;1.60;;;;;;;23.19;35.61;97092.94;107262;1274;39055;-76
2022/06/14 07:14:17;;;;;;;2.80;1.40;;;;;;;24.15;35.96;97089.60;107206;1274;40647;-75
2022/06/14 07:16:55;;;;;;;3.10;1.50;;;;;;;25.43;33.97;97080.25;107259;1274;39547;-76
2022/06/14 07:19:40;;;;;;;3.40;1.80;;;;;;;25.84;34.09;97085.71;107127;1274;39713;-76
2022/06/14 07:22:18;;;;;;;3.10;1.40;;;;;;;27.03;34.09;97085.80;107327;1274;44016;-76
2022/06/14 07:24:57;;;;;;;4.60;1.60;;;;;;;28.49;32.70;97087.64;107313;1274;34675;-76
2022/06/14 07:27:34;;;;;;;4.00;1.60;;;;;;;29.21;32.04;97082.66;107333;1274;34427;-76
2022/06/14 07:30:12;;;;;;;3.20;1.60;;;;;;;30.91;30.35;97075.78;107294;1274;33970;-76
2022/06/14 07:32:47;;;;;;;3.00;1.30;;;;;;;30.17;28.78;97078.37;107302;1274;32144;-76
2022/06/14 07:35:28;;;;;;;3.40;1.70;;;;;;;26.82;31.11;97085.98;107135;1274;43171;-76
2022/06/14 07:38:10;;;;;;;3.30;1.50;;;;;;;25.64;33.11;97082.14;107215;1274;36090;-76
2022/06/14 07:40:49;;;;;;;3.30;1.60;;;;;;;26.67;34.71;97083.23;107194;1274;33577;-76
2022/06/14 07:43:26;;;;;;;2.30;1.60;;;;;;;29.04;32.58;97084.66;107175;1274;43061;-76
2022/06/14 07:46:02;;;;;;;2.40;1.30;;;;;;;29.46;30.59;97080.66;107195;1274;62578;-76
2022/06/14 07:48:40;;;;;;;3.60;1.40;;;;;;;28.78;30.94;97088.02;107364;1274;32084;-77
2022/06/14 07:51:16;;;;;;;2.90;1.30;;;;;;;25.92;31.25;97090.02;107399;1274;59003;-76
2022/06/14 07:53:55;;;;;;;3.40;1.40;;;;;;;25.49;33.31;97094.84;107421;1273;43557;-78
2022/06/14 07:56:28;;;;;;;;;;;;;;;27.15;33.36;97088.55;107387;1274;41600;-76
2022/06/14 07:59:05;;;;;;;2.30;1.50;;;;;;;26.86;32.07;97088.44;107529;1273;30683;-76
2022/06/14 08:01:42;;;;;;;2.80;1.30;;;;;;;24.88;34.19;97092.67;107299;1274;47256;-76
2022/06/14 08:04:18;;;;;;;1.60;1.00;;;;;;;26.23;34.64;97090.21;107273;1273;32662;-76
2022/06/14 08:06:55;;;;;;;4.50;1.40;;;;;;;26.64;33.17;97087.09;107253;1274;47980;-77
2022/06/14 08:09:29;;;;;;;2.30;1.20;;;;;;;25.46;32.99;97097.68;107303;1272;57536;-77
2022/06/14 08:12:07;;;;;;;3.80;1.30;;;;;;;22.70;34.83;97102.66;107392;1274;60818;-76
2022/06/14 08:14:48;;;;;;;2.70;1.50;;;;;;;20.57;38.05;97107.71;107349;1272;64541;-75
2022/06/14 08:17:30;;;;;;;3.70;2.00;;;;;;;19.52;41.22;97116.55;107149;1272;37136;-76
2022/06/14 08:20:09;;;;;;;6.60;1.90;;;;;;;18.50;42.79;97120.02;107391;1273;36691;-76
2022/06/14 08:22:46;;;;;;;4.30;1.30;;;;;;;18.79;44.42;97121.76;105476;1274;2485700;-75
2022/06/14 08:25:20;;;;;;;2.80;1.40;;;;;;;22.40;41.98;97114.65;107269;1274;32666;-76
2022/06/14 08:27:56;;;;;;;2.80;1.40;;;;;;;25.27;37.62;97104.75;107216;1274;39985;-77
2022/06/14 08:30:32;;;;;;;3.70;1.80;;;;;;;26.38;36.16;97101.38;107168;1274;54483;-77
2022/06/14 08:33:07;;;;;;;1.40;1.20;;;;;;;26.95;34.38;97099.35;107188;1273;50260;-77
2022/06/14 08:35:44;;;;;;;3.20;1.30;;;;;;;26.49;33.80;97105.77;107213;1273;34443;-76
2022/06/14 08:38:20;;;;;;;3.90;1.60;;;;;;;25.17;34.94;97108.40;107182;1274;41591;-76
2022/06/14 08:41:05;;;;;;;3.40;1.30;;;;;;;25.83;34.08;97108.98;107148;1274;48949;-76
2022/06/14 08:43:42;;;;;;;3.30;1.30;;;;;;;27.08;34.16;97108.77;107113;1274;64194;-76
2022/06/14 08:46:32;;;;;;;3.30;1.30;;;;;;;27.39;31.97;97108.23;107237;1272;29933;-76
2022/06/14 08:49:35;;;;;;;2.20;1.20;;;;;;;25.37;33.02;97109.35;106927;1274;337750;-75
2022/06/14 08:52:32;;;;;;;3.80;1.30;;;;;;;23.05;35.01;97112.87;107139;1272;42183;-76
2022/06/14 08:55:20;;;;;;;2.40;1.10;;;;;;;22.13;37.19;97114.14;107180;1274;48519;-76
2022/06/14 08:58:30;;;;;;;2.60;1.30;;;;;;;22.38;38.71;97111.34;107193;1274;34779;-76
2022/06/14 09:01:17;;;;;;;2.40;1.20;;;;;;;22.88;38.89;97106.97;107257;1274;35262;-76
2022/06/14 09:04:16;;;;;;;4.10;1.60;;;;;;;22.16;37.90;97100.33;107193;1274;58433;-76
2022/06/14 09:07:08;;;;;;;3.60;1.60;;;;;;;20.73;38.73;97101.85;107200;1273;42344;-79
2022/06/14 09:10:23;;;;;;;3.00;1.20;;;;;;;20.26;40.73;97106.22;107111;1274;53659;-75
2022/06/14 09:13:22;;;;;;;2.10;1.30;;;;;;;20.08;41.17;97103.80;107067;1274;50776;-76
2022/06/14 09:16:38;;;;;;;4.70;1.40;;;;;;;19.55;41.25;97110.92;107132;1274;42598;-76
2022/06/14 09:19:25;;;;;;;4.40;1.30;;;;;;;18.96;42.05;97106.45;107103;1274;39926;-75
2022/06/14 09:22:09;;;;;;;2.90;1.30;;;;;;;19.31;44.02;97100.88;107195;1273;37218;-76
2022/06/14 09:24:56;;;;;;;2.50;1.40;;;;;;;19.11;42.45;97097.74;107140;1272;75228;-76
2022/06/14 09:27:57;;;;;;;3.00;1.30;;;;;;;18.67;42.75;97092.50;107260;1272;36897;-76
2022/06/14 09:30:47;;;;;;;;;;;;;;;18.07;43.57;97092.52;106995;1274;44419;-77
2022/06/14 09:33:48;;;;;;;1.80;1.30;;;;;;;18.00;45.15;97086.98;107136;1274;55532;-76
2022/06/14 09:36:42;;;;;;;5.10;1.60;;;;;;;18.31;45.56;97077.98;107116;1273;38247;-76
2022/06/14 09:39:47;;;;;;;1.50;0.90;;;;;;;18.62;44.88;97081.67;107194;1272;32744;-76
2022/06/14 09:42:59;;;;;;;2.70;1.20;;;;;;;18.20;44.20;97080.56;107129;1273;38872;-76
2022/06/14 09:45:54;;;;;;;2.70;1.10;;;;;;;18.08;44.89;97076.55;107159;1274;46106;-76
2022/06/14 09:49:08;;;;;;;3.90;1.10;;;;;;;17.96;44.93;97073.89;107177;1273;37400;-76
2022/06/14 09:52:19;;;;;;;2.90;1.50;;;;;;;18.03;45.09;97077.12;106994;1272;34748;-76
2022/06/14 09:55:19;;;;;;;4.90;1.50;;;;;;;18.21;46.46;97080.15;106972;1276;32767;-76
2022/06/14 09:58:16;;;;;;;3.80;1.30;;;;;;;18.61;45.58;97083.21;107127;1272;53578;-76
2022/06/14 10:00:53;;;;;;;2.00;1.30;;;;;;;19.01;45.49;97086.99;107143;1272;38945;-76
2022/06/14 10:03:55;;;;;;;2.30;1.20;;;;;;;19.40;45.15;97083.35;107126;1273;41540;-76
2022/06/14 10:07:04;;;;;;;2.00;0.90;;;;;;;18.83;43.76;97087.00;107031;1272;50850;-75
2022/06/14 10:10:02;;;;;;;3.30;1.10;;;;;;;18.03;44.38;97088.29;107175;1272;37131;-78
2022/06/14 10:12:57;;;;;;;1.90;1.10;;;;;;;17.54;45.73;97088.92;107242;1272;63150;-78
2022/06/14 10:15:41;;;;;;;2.20;1.40;;;;;;;17.29;45.64;97084.89;107319;1272;58131;-83
2022/06/14 10:18:25;;;;;;;2.80;1.10;;;;;;;17.13;45.75;97091.37;107054;1272;174045;-82
2022/06/14 10:21:03;;;;;;;3.80;0.90;;;;;;;17.17;46.52;97087.58;107080;1272;78646;-83
2022/06/14 10:24:08;;;;;;;3.50;1.30;;;;;;;17.34;46.26;97090.50;107004;1272;117951;-82
2022/06/14 10:30:12;;;;;;;2.80;1.50;;;;;;;17.40;46.38;97090.61;107380;1272;112361;-83
2022/06/14 10:33:11;;;;;;;2.10;1.40;;;;;;;17.35;46.92;97088.29;107325;1272;109779;-82
2022/06/14 10:35:54;;;;;;;2.00;1.20;;;;;;;17.34;47.74;97094.91;107125;1272;119582;-83
2022/06/14 10:38:56;;;;;;;2.40;1.20;;;;;;;17.38;46.95;97096.78;107263;1272;97700;-83
2022/06/14 10:41:38;;;;;;;3.10;1.30;;;;;;;17.26;46.78;97096.13;107250;1272;132352;-83
2022/06/14 10:44:20;;;;;;;2.30;1.00;;;;;;;17.22;47.34;97097.19;107177;1272;107949;-83
2022/06/14 10:47:02;;;;;;;2.00;1.10;;;;;;;17.44;46.52;97092.41;107189;1272;98492;-83
2022/06/14 10:50:06;;;;;;;3.40;1.20;;;;;;;17.58;46.32;97091.38;107383;1272;108852;-83
2022/06/14 10:52:52;;;;;;;1.70;1.30;;;;;;;17.76;46.09;97091.34;107151;1272;42651;-83
2022/06/14 10:55:49;;;;;;;2.10;1.00;;;;;;;17.76;45.57;97093.91;107129;1272;155578;-83
2022/06/14 10:58:58;;;;;;;2.20;0.90;;;;;;;17.86;45.33;97091.80;107184;1272;100889;-85
2022/06/14 11:01:45;;;;;;;2.10;1.10;;;;;;;17.36;44.95;97099.60;107238;1272;95721;-84
2022/06/14 11:04:22;;;;;;;2.50;1.20;;;;;;;17.18;45.91;97096.98;107154;1272;127897;-84
2022/06/14 11:07:29;;;;;;;2.00;1.30;;;;;;;17.15;46.75;97089.23;107268;1272;94053;-83
2022/06/14 11:10:21;;;;;;;4.10;1.10;;;;;;;17.14;47.23;97093.80;107375;1272;102592;-83
2022/06/14 11:13:00;;;;;;;2.80;1.20;;;;;;;17.10;47.15;97098.30;107241;1272;97414;-83
2022/06/14 11:15:37;;;;;;;2.90;0.70;;;;;;;17.14;46.73;97091.73;107429;1272;92574;-84
2022/06/14 11:18:42;;;;;;;3.60;1.30;;;;;;;17.04;46.42;97094.94;107237;1272;126871;-83
2022/06/14 11:21:34;;;;;;;1.50;0.90;;;;;;;17.08;47.01;97094.73;107177;1272;100540;-83
2022/06/14 11:24:16;;;;;;;2.80;1.20;;;;;;;17.23;47.30;97091.77;107083;1272;130774;-83
2022/06/14 11:26:57;;;;;;;3.00;1.30;;;;;;;17.05;47.52;97092.98;107195;1272;124923;-84
2022/06/14 11:29:39;;;;;;;3.40;1.10;;;;;;;16.97;48.66;97095.55;107299;1272;78226;-83
2022/06/14 11:32:21;;;;;;;4.40;1.30;;;;;;;17.16;48.78;97099.02;107069;1272;128043;-82
2022/06/14 11:35:07;;;;;;;2.70;1.40;;;;;;;17.40;48.91;97097.36;107074;1272;118204;-83
2022/06/14 11:38:01;;;;;;;3.40;1.20;;;;;;;17.65;48.40;97093.34;107134;1272;44193;-83
2022/06/14 11:40:35;;;;;;;2.50;1.20;;;;;;;17.73;48.02;97090.30;107295;1272;131459;-83
2022/06/14 11:43:25;;;;;;;2.90;1.20;;;;;;;17.74;48.30;97091.55;107272;1272;98386;-83
2022/06/14 11:46:02;;;;;;;2.70;1.20;;;;;;;17.60;47.93;97088.48;107131;1274;112455;-83
2022/06/14 11:48:40;;;;;;;2.20;1.10;;;;;;;17.52;48.07;97091.28;107393;1272;112421;-84
2022/06/14 11:51:22;;;;;;;3.00;1.20;;;;;;;17.73;48.87;97091.94;107164;1272;102242;-83
2022/06/14 11:54:18;;;;;;;4.40;1.20;;;;;;;17.92;47.70;97091.46;107152;1272;100042;-83
2022/06/14 11:57:06;;;;;;;1.70;0.90;;;;;;;17.82;46.06;97087.63;105924;1272;1659719;-84
2022/06/14 11:59:58;;;;;;;2.60;0.90;;;;;;;17.58;45.83;97089.61;106019;1272;1571666;-84
2022/06/14 12:02:51;;;;;;;2.40;1.00;;;;;;;17.48;46.09;97085.93;107370;1272;102208;-84
2022/06/14 12:05:37;;;;;;;1.40;0.70;;;;;;;17.62;46.50;97083.52;107066;1272;148075;-84
2022/06/14 12:08:25;;;;;;;3.40;1.20;;;;;;;17.79;46.27;97082.98;107351;1272;82898;-84
2022/06/14 12:11:04;;;;;;;1.00;0.80;;;;;;;17.79;46.38;97082.14;107338;1272;83621;-84
2022/06/14 12:14:02;;;;;;;2.30;0.90;;;;;;;17.76;46.29;97080.39;107396;1272;35709;-82
2022/06/14 12:16:40;;;;;;;2.30;0.80;;;;;;;17.55;46.29;97079.90;107776;1272;47922;-82
2022/06/14 12:19:14;;;;;;;3.30;0.90;;;;;;;17.27;46.14;97086.61;107760;1274;66078;-79
2022/06/14 12:21:57;;;;;;;1.30;0.70;;;;;;;17.40;47.65;97085.85;107251;1272;40769;-83
2022/06/14 12:30:27;;;;;;;1.50;0.70;;;;;;;18.56;47.63;97074.30;107118;1272;1209448;-85
2022/06/14 12:33:44;;;;;;;1.30;0.80;;;;;;;18.59;46.76;97076.41;107635;1272;51494;-84
2022/06/14 12:36:49;;;;;;;2.70;0.70;;;;;;;18.28;45.27;97076.45;107279;1272;54000;-85
2022/06/14 12:39:45;;;;;;;3.70;1.00;;;;;;;17.87;45.69;97085.97;107302;1272;68269;-84
2022/06/14 12:42:31;;;;;;;4.50;1.00;;;;;;;17.68;46.03;97083.77;107209;1274;38194;-85
2022/06/14 12:45:16;;;;;;;2.20;1.00;;;;;;;17.69;46.65;97086.95;104726;1272;2205071;-84
2022/06/14 12:48:19;;;;;;;5.90;1.40;;;;;;;17.89;47.53;97091.27;107375;1272;54557;-84
2022/06/14 12:51:18;;;;;;;2.20;1.10;;;;;;;18.40;46.95;97086.50;107618;1272;47249;-83
2022/06/14 12:57:15;;;;;;;3.00;0.80;;;;;;;19.02;46.04;97080.48;107502;1272;40110;-84